sensor_id;sensor_type;location;lat;lon;timestamp;temperature;humidity
439;DHT22;206;48.782;9.252;2022-11-22T00:00:29;8.80;57.40
439;DHT22;206;48.782;9.252;2022-11-22T00:02:55;8.80;57.20
439;DHT22;206;48.782;9.252;2022-11-22T00:05:20;8.80;57.90
439;DHT22;206;48.782;9.252;2022-11-22T00:07:46;8.80;58.00
439;DHT22;206;48.782;9.252;2022-11-22T00:10:13;8.90;58.10
439;DHT22;206;48.782;9.252;2022-11-22T00:12:39;8.90;58.00
439;DHT22;206;48.782;9.252;2022-11-22T00:15:06;8.90;57.30
439;DHT22;206;48.782;9.252;2022-11-22T00:17:32;8.90;58.30
439;DHT22;206;48.782;9.252;2022-11-22T00:19:58;8.80;59.00
439;DHT22;206;48.782;9.252;2022-11-22T00:22:24;8.90;60.20
439;DHT22;206;48.782;9.252;2022-11-22T00:24:51;8.90;60.00
439;DHT22;206;48.782;9.252;2022-11-22T00:27:17;8.80;59.60
439;DHT22;206;48.782;9.252;2022-11-22T00:29:42;8.80;59.90
439;DHT22;206;48.782;9.252;2022-11-22T00:32:08;8.80;60.70
439;DHT22;206;48.782;9.252;2022-11-22T00:34:34;8.80;60.20
439;DHT22;206;48.782;9.252;2022-11-22T00:36:59;8.80;61.00
439;DHT22;206;48.782;9.252;2022-11-22T00:39:25;8.80;61.50
439;DHT22;206;48.782;9.252;2022-11-22T00:41:50;8.70;61.50
439;DHT22;206;48.782;9.252;2022-11-22T00:44:16;8.70;60.30
439;DHT22;206;48.782;9.252;2022-11-22T00:46:41;8.70;59.80
439;DHT22;206;48.782;9.252;2022-11-22T00:49:07;8.70;59.50
439;DHT22;206;48.782;9.252;2022-11-22T00:51:32;8.60;60.00
439;DHT22;206;48.782;9.252;2022-11-22T00:53:58;8.60;60.80
439;DHT22;206;48.782;9.252;2022-11-22T00:56:24;8.70;59.80
439;DHT22;206;48.782;9.252;2022-11-22T00:58:49;8.70;59.60
439;DHT22;206;48.782;9.252;2022-11-22T01:01:15;8.60;58.80
439;DHT22;206;48.782;9.252;2022-11-22T01:03:40;8.60;59.10
439;DHT22;206;48.782;9.252;2022-11-22T01:06:06;8.60;58.40
439;DHT22;206;48.782;9.252;2022-11-22T01:08:32;8.60;57.80
439;DHT22;206;48.782;9.252;2022-11-22T01:10:58;8.60;57.80
439;DHT22;206;48.782;9.252;2022-11-22T01:13:25;8.60;58.00
439;DHT22;206;48.782;9.252;2022-11-22T01:15:51;8.70;58.60
439;DHT22;206;48.782;9.252;2022-11-22T01:18:17;8.70;58.90
439;DHT22;206;48.782;9.252;2022-11-22T01:20:42;8.70;59.10
439;DHT22;206;48.782;9.252;2022-11-22T01:23:08;8.70;58.70
439;DHT22;206;48.782;9.252;2022-11-22T01:25:34;8.70;59.30
439;DHT22;206;48.782;9.252;2022-11-22T01:27:59;8.70;58.60
439;DHT22;206;48.782;9.252;2022-11-22T01:30:25;8.70;58.90
439;DHT22;206;48.782;9.252;2022-11-22T01:32:50;8.70;58.10
439;DHT22;206;48.782;9.252;2022-11-22T01:35:16;8.70;57.90
439;DHT22;206;48.782;9.252;2022-11-22T01:37:42;8.70;58.20
439;DHT22;206;48.782;9.252;2022-11-22T01:40:09;8.70;58.90
439;DHT22;206;48.782;9.252;2022-11-22T01:42:41;8.80;59.30
439;DHT22;206;48.782;9.252;2022-11-22T01:45:46;8.80;58.50
439;DHT22;206;48.782;9.252;2022-11-22T01:48:17;8.80;58.90
439;DHT22;206;48.782;9.252;2022-11-22T01:50:47;8.80;58.50
439;DHT22;206;48.782;9.252;2022-11-22T01:53:18;8.80;59.00
439;DHT22;206;48.782;9.252;2022-11-22T01:55:45;8.80;59.60
439;DHT22;206;48.782;9.252;2022-11-22T01:58:13;8.80;59.80
439;DHT22;206;48.782;9.252;2022-11-22T02:00:39;8.80;60.90
439;DHT22;206;48.782;9.252;2022-11-22T02:03:08;8.70;61.20
439;DHT22;206;48.782;9.252;2022-11-22T02:05:35;8.80;61.40
439;DHT22;206;48.782;9.252;2022-11-22T02:08:11;8.70;61.80
439;DHT22;206;48.782;9.252;2022-11-22T02:10:42;8.70;62.30
439;DHT22;206;48.782;9.252;2022-11-22T02:13:09;8.80;61.60
439;DHT22;206;48.782;9.252;2022-11-22T02:15:35;8.70;61.40
439;DHT22;206;48.782;9.252;2022-11-22T02:18:01;8.70;62.70
439;DHT22;206;48.782;9.252;2022-11-22T02:20:27;8.80;62.10
439;DHT22;206;48.782;9.252;2022-11-22T02:23:15;8.80;62.20
439;DHT22;206;48.782;9.252;2022-11-22T02:28:17;8.80;60.90
439;DHT22;206;48.782;9.252;2022-11-22T02:30:43;8.80;61.00
439;DHT22;206;48.782;9.252;2022-11-22T02:33:09;8.90;61.60
439;DHT22;206;48.782;9.252;2022-11-22T02:35:35;8.90;61.30
439;DHT22;206;48.782;9.252;2022-11-22T02:38:07;8.90;61.20
439;DHT22;206;48.782;9.252;2022-11-22T02:40:37;8.90;61.60
439;DHT22;206;48.782;9.252;2022-11-22T02:43:07;8.90;62.90
439;DHT22;206;48.782;9.252;2022-11-22T02:45:35;8.90;62.30
439;DHT22;206;48.782;9.252;2022-11-22T02:48:06;8.90;62.80
439;DHT22;206;48.782;9.252;2022-11-22T02:50:32;8.90;62.90
439;DHT22;206;48.782;9.252;2022-11-22T02:52:57;8.90;62.80
439;DHT22;206;48.782;9.252;2022-11-22T02:55:23;8.80;62.80
439;DHT22;206;48.782;9.252;2022-11-22T02:57:48;8.80;62.80
439;DHT22;206;48.782;9.252;2022-11-22T03:00:14;8.80;63.60
439;DHT22;206;48.782;9.252;2022-11-22T03:02:40;8.80;64.10
439;DHT22;206;48.782;9.252;2022-11-22T03:05:06;8.70;64.30
439;DHT22;206;48.782;9.252;2022-11-22T03:07:31;8.60;64.80
439;DHT22;206;48.782;9.252;2022-11-22T03:09:57;8.60;65.80
439;DHT22;206;48.782;9.252;2022-11-22T03:12:22;8.50;65.10
439;DHT22;206;48.782;9.252;2022-11-22T03:14:48;8.50;65.60
439;DHT22;206;48.782;9.252;2022-11-22T03:17:14;8.50;66.10
439;DHT22;206;48.782;9.252;2022-11-22T03:19:40;8.40;66.80
439;DHT22;206;48.782;9.252;2022-11-22T03:22:05;8.40;67.40
439;DHT22;206;48.782;9.252;2022-11-22T03:24:31;8.30;67.90
439;DHT22;206;48.782;9.252;2022-11-22T03:26:56;8.30;68.30
439;DHT22;206;48.782;9.252;2022-11-22T03:29:22;8.30;69.10
439;DHT22;206;48.782;9.252;2022-11-22T03:31:47;8.30;69.70
439;DHT22;206;48.782;9.252;2022-11-22T03:34:14;8.30;70.30
439;DHT22;206;48.782;9.252;2022-11-22T03:36:39;8.30;70.50
439;DHT22;206;48.782;9.252;2022-11-22T03:39:05;8.30;70.50
439;DHT22;206;48.782;9.252;2022-11-22T03:41:31;8.30;70.80
439;DHT22;206;48.782;9.252;2022-11-22T03:43:56;8.30;70.50
439;DHT22;206;48.782;9.252;2022-11-22T03:46:22;8.30;70.70
439;DHT22;206;48.782;9.252;2022-11-22T03:48:47;8.30;70.60
439;DHT22;206;48.782;9.252;2022-11-22T03:51:13;8.40;70.60
439;DHT22;206;48.782;9.252;2022-11-22T03:53:38;8.40;70.40
439;DHT22;206;48.782;9.252;2022-11-22T03:56:05;8.40;70.10
439;DHT22;206;48.782;9.252;2022-11-22T03:58:30;8.40;69.80
439;DHT22;206;48.782;9.252;2022-11-22T04:00:56;8.50;69.30
439;DHT22;206;48.782;9.252;2022-11-22T04:03:22;8.50;68.70
439;DHT22;206;48.782;9.252;2022-11-22T04:05:48;8.50;68.70
439;DHT22;206;48.782;9.252;2022-11-22T04:08:14;8.50;68.30
439;DHT22;206;48.782;9.252;2022-11-22T04:10:40;8.40;68.30
439;DHT22;206;48.782;9.252;2022-11-22T04:13:05;8.40;68.00
439;DHT22;206;48.782;9.252;2022-11-22T04:15:31;8.40;68.70
439;DHT22;206;48.782;9.252;2022-11-22T04:17:56;8.40;68.60
439;DHT22;206;48.782;9.252;2022-11-22T04:20:27;8.30;69.50
439;DHT22;206;48.782;9.252;2022-11-22T04:23:17;8.30;69.10
439;DHT22;206;48.782;9.252;2022-11-22T04:25:45;8.30;69.30
439;DHT22;206;48.782;9.252;2022-11-22T04:28:12;8.30;69.70
439;DHT22;206;48.782;9.252;2022-11-22T04:30:39;8.30;69.30
439;DHT22;206;48.782;9.252;2022-11-22T04:33:23;8.20;69.60
439;DHT22;206;48.782;9.252;2022-11-22T04:35:49;8.20;70.00
439;DHT22;206;48.782;9.252;2022-11-22T04:38:16;8.20;70.20
439;DHT22;206;48.782;9.252;2022-11-22T04:40:42;8.20;70.20
439;DHT22;206;48.782;9.252;2022-11-22T04:43:13;8.20;70.60
439;DHT22;206;48.782;9.252;2022-11-22T04:45:59;8.10;70.70
439;DHT22;206;48.782;9.252;2022-11-22T04:48:25;8.10;72.00
439;DHT22;206;48.782;9.252;2022-11-22T04:50:51;8.10;72.00
439;DHT22;206;48.782;9.252;2022-11-22T04:53:35;8.10;72.10
439;DHT22;206;48.782;9.252;2022-11-22T04:56:02;8.10;72.10
439;DHT22;206;48.782;9.252;2022-11-22T04:58:27;8.00;71.40
439;DHT22;206;48.782;9.252;2022-11-22T05:00:53;8.00;71.00
439;DHT22;206;48.782;9.252;2022-11-22T05:03:19;7.90;70.40
439;DHT22;206;48.782;9.252;2022-11-22T05:05:44;7.90;71.40
439;DHT22;206;48.782;9.252;2022-11-22T05:08:10;7.90;72.60
439;DHT22;206;48.782;9.252;2022-11-22T05:10:36;7.80;71.80
439;DHT22;206;48.782;9.252;2022-11-22T05:13:23;7.80;71.80
439;DHT22;206;48.782;9.252;2022-11-22T05:15:49;7.70;71.70
439;DHT22;206;48.782;9.252;2022-11-22T05:18:18;7.70;72.70
439;DHT22;206;48.782;9.252;2022-11-22T05:20:45;7.60;73.00
439;DHT22;206;48.782;9.252;2022-11-22T05:23:11;7.60;72.70
439;DHT22;206;48.782;9.252;2022-11-22T05:25:55;7.50;73.40
439;DHT22;206;48.782;9.252;2022-11-22T05:28:21;7.40;74.20
439;DHT22;206;48.782;9.252;2022-11-22T05:30:46;7.40;76.10
439;DHT22;206;48.782;9.252;2022-11-22T05:33:12;7.40;76.30
439;DHT22;206;48.782;9.252;2022-11-22T05:35:38;7.40;76.60
439;DHT22;206;48.782;9.252;2022-11-22T05:38:03;7.40;77.00
439;DHT22;206;48.782;9.252;2022-11-22T05:40:29;7.40;77.00
439;DHT22;206;48.782;9.252;2022-11-22T05:42:56;7.40;76.30
439;DHT22;206;48.782;9.252;2022-11-22T05:45:21;7.40;76.30
439;DHT22;206;48.782;9.252;2022-11-22T05:47:47;7.50;76.40
439;DHT22;206;48.782;9.252;2022-11-22T05:50:13;7.50;75.70
439;DHT22;206;48.782;9.252;2022-11-22T05:52:38;7.60;76.30
439;DHT22;206;48.782;9.252;2022-11-22T05:55:04;7.60;74.20
439;DHT22;206;48.782;9.252;2022-11-22T05:57:31;7.70;73.30
439;DHT22;206;48.782;9.252;2022-11-22T05:59:57;7.80;73.00
439;DHT22;206;48.782;9.252;2022-11-22T06:02:23;7.90;72.70
439;DHT22;206;48.782;9.252;2022-11-22T06:04:48;7.90;71.00
439;DHT22;206;48.782;9.252;2022-11-22T06:07:14;8.00;71.10
439;DHT22;206;48.782;9.252;2022-11-22T06:09:40;8.10;69.50
439;DHT22;206;48.782;9.252;2022-11-22T06:12:06;8.10;67.10
439;DHT22;206;48.782;9.252;2022-11-22T06:14:31;8.20;67.20
439;DHT22;206;48.782;9.252;2022-11-22T06:16:57;8.20;67.20
439;DHT22;206;48.782;9.252;2022-11-22T06:19:22;8.20;65.80
439;DHT22;206;48.782;9.252;2022-11-22T06:21:48;8.20;65.70
439;DHT22;206;48.782;9.252;2022-11-22T06:24:14;8.20;66.40
439;DHT22;206;48.782;9.252;2022-11-22T06:26:39;8.30;66.50
439;DHT22;206;48.782;9.252;2022-11-22T06:29:05;8.30;66.00
439;DHT22;206;48.782;9.252;2022-11-22T06:31:30;8.30;65.10
439;DHT22;206;48.782;9.252;2022-11-22T06:33:58;8.30;65.20
439;DHT22;206;48.782;9.252;2022-11-22T06:36:28;8.20;66.50
439;DHT22;206;48.782;9.252;2022-11-22T06:38:55;8.10;67.00
439;DHT22;206;48.782;9.252;2022-11-22T06:41:30;8.00;67.70
439;DHT22;206;48.782;9.252;2022-11-22T06:43:56;8.00;68.10
439;DHT22;206;48.782;9.252;2022-11-22T06:46:24;8.00;67.50
439;DHT22;206;48.782;9.252;2022-11-22T06:48:50;8.00;67.60
439;DHT22;206;48.782;9.252;2022-11-22T06:51:18;8.00;68.80
439;DHT22;206;48.782;9.252;2022-11-22T06:53:44;8.00;69.00
439;DHT22;206;48.782;9.252;2022-11-22T06:58:41;8.10;68.60
439;DHT22;206;48.782;9.252;2022-11-22T07:01:09;8.00;69.60
439;DHT22;206;48.782;9.252;2022-11-22T07:03:36;8.00;71.00
439;DHT22;206;48.782;9.252;2022-11-22T07:06:03;8.00;71.80
439;DHT22;206;48.782;9.252;2022-11-22T07:08:29;8.00;72.00
439;DHT22;206;48.782;9.252;2022-11-22T07:11:04;8.00;72.00
439;DHT22;206;48.782;9.252;2022-11-22T07:13:30;8.10;72.00
439;DHT22;206;48.782;9.252;2022-11-22T07:15:57;8.00;72.00
439;DHT22;206;48.782;9.252;2022-11-22T07:18:23;8.00;72.00
439;DHT22;206;48.782;9.252;2022-11-22T07:20:49;8.00;72.70
439;DHT22;206;48.782;9.252;2022-11-22T07:23:15;8.00;72.40
439;DHT22;206;48.782;9.252;2022-11-22T07:25:47;8.00;72.30
439;DHT22;206;48.782;9.252;2022-11-22T07:28:14;8.00;72.00
439;DHT22;206;48.782;9.252;2022-11-22T07:30:40;8.00;71.10
439;DHT22;206;48.782;9.252;2022-11-22T07:33:07;8.10;72.00
439;DHT22;206;48.782;9.252;2022-11-22T07:35:32;8.10;72.10
439;DHT22;206;48.782;9.252;2022-11-22T07:37:58;8.20;71.20
439;DHT22;206;48.782;9.252;2022-11-22T07:40:24;8.10;69.30
439;DHT22;206;48.782;9.252;2022-11-22T07:42:49;8.10;70.20
439;DHT22;206;48.782;9.252;2022-11-22T07:45:15;8.10;70.40
439;DHT22;206;48.782;9.252;2022-11-22T07:47:41;8.10;71.50
439;DHT22;206;48.782;9.252;2022-11-22T07:50:06;8.10;72.00
439;DHT22;206;48.782;9.252;2022-11-22T07:52:32;8.20;72.10
439;DHT22;206;48.782;9.252;2022-11-22T07:54:58;8.20;71.30
439;DHT22;206;48.782;9.252;2022-11-22T07:57:24;8.30;70.10
439;DHT22;206;48.782;9.252;2022-11-22T07:59:49;8.40;69.40
439;DHT22;206;48.782;9.252;2022-11-22T08:02:15;8.40;69.50
439;DHT22;206;48.782;9.252;2022-11-22T08:04:41;8.50;69.30
439;DHT22;206;48.782;9.252;2022-11-22T08:07:06;8.60;68.90
439;DHT22;206;48.782;9.252;2022-11-22T08:09:32;8.70;67.80
439;DHT22;206;48.782;9.252;2022-11-22T08:11:57;8.70;67.70
439;DHT22;206;48.782;9.252;2022-11-22T08:14:23;8.80;67.20
439;DHT22;206;48.782;9.252;2022-11-22T08:16:49;8.80;66.50
439;DHT22;206;48.782;9.252;2022-11-22T08:19:14;8.90;65.00
439;DHT22;206;48.782;9.252;2022-11-22T08:21:43;8.90;64.60
439;DHT22;206;48.782;9.252;2022-11-22T08:24:09;9.00;64.90
439;DHT22;206;48.782;9.252;2022-11-22T08:26:35;9.00;63.90
439;DHT22;206;48.782;9.252;2022-11-22T08:29:04;9.00;63.00
439;DHT22;206;48.782;9.252;2022-11-22T08:31:29;9.00;63.40
439;DHT22;206;48.782;9.252;2022-11-22T08:33:55;9.10;63.10
439;DHT22;206;48.782;9.252;2022-11-22T08:36:21;9.10;63.10
439;DHT22;206;48.782;9.252;2022-11-22T08:38:46;9.20;62.60
439;DHT22;206;48.782;9.252;2022-11-22T08:41:12;9.30;60.60
439;DHT22;206;48.782;9.252;2022-11-22T08:43:38;9.30;60.10
439;DHT22;206;48.782;9.252;2022-11-22T08:46:04;9.40;58.90
439;DHT22;206;48.782;9.252;2022-11-22T08:48:32;9.40;58.60
439;DHT22;206;48.782;9.252;2022-11-22T08:50:59;9.50;59.20
439;DHT22;206;48.782;9.252;2022-11-22T08:53:26;9.60;58.60
439;DHT22;206;48.782;9.252;2022-11-22T08:55:52;9.70;58.40
439;DHT22;206;48.782;9.252;2022-11-22T08:58:18;9.80;57.70
439;DHT22;206;48.782;9.252;2022-11-22T09:00:44;9.90;56.90
439;DHT22;206;48.782;9.252;2022-11-22T09:03:10;10.00;55.20
439;DHT22;206;48.782;9.252;2022-11-22T09:05:35;10.10;53.40
439;DHT22;206;48.782;9.252;2022-11-22T09:08:01;10.20;52.80
439;DHT22;206;48.782;9.252;2022-11-22T09:10:27;10.30;52.80
439;DHT22;206;48.782;9.252;2022-11-22T09:12:52;10.40;52.60
439;DHT22;206;48.782;9.252;2022-11-22T09:15:18;10.40;51.20
439;DHT22;206;48.782;9.252;2022-11-22T09:17:43;10.50;50.90
439;DHT22;206;48.782;9.252;2022-11-22T09:20:10;10.60;50.50
439;DHT22;206;48.782;9.252;2022-11-22T09:22:36;10.60;50.30
439;DHT22;206;48.782;9.252;2022-11-22T09:25:03;10.70;49.20
439;DHT22;206;48.782;9.252;2022-11-22T09:27:30;10.70;48.70
439;DHT22;206;48.782;9.252;2022-11-22T09:29:56;10.80;48.00
439;DHT22;206;48.782;9.252;2022-11-22T09:32:22;10.80;48.50
439;DHT22;206;48.782;9.252;2022-11-22T09:34:47;10.80;48.20
439;DHT22;206;48.782;9.252;2022-11-22T09:37:13;10.90;48.00
439;DHT22;206;48.782;9.252;2022-11-22T09:39:43;10.90;47.30
439;DHT22;206;48.782;9.252;2022-11-22T09:53:22;11.10;44.80
439;DHT22;206;48.782;9.252;2022-11-22T09:55:37;11.00;45.10
439;DHT22;206;48.782;9.252;2022-11-22T10:01:22;11.00;44.60
439;DHT22;206;48.782;9.252;2022-11-22T10:04:13;11.10;44.10
439;DHT22;206;48.782;9.252;2022-11-22T10:06:53;11.00;44.00
439;DHT22;206;48.782;9.252;2022-11-22T10:09:50;11.00;44.30
439;DHT22;206;48.782;9.252;2022-11-22T10:12:41;11.00;43.90
439;DHT22;206;48.782;9.252;2022-11-22T10:18:03;11.00;42.80
439;DHT22;206;48.782;9.252;2022-11-22T10:20:33;10.80;44.40
439;DHT22;206;48.782;9.252;2022-11-22T10:23:00;10.90;44.60
439;DHT22;206;48.782;9.252;2022-11-22T10:31:07;11.10;42.90
439;DHT22;206;48.782;9.252;2022-11-22T10:34:15;11.10;42.60
439;DHT22;206;48.782;9.252;2022-11-22T10:36:55;11.10;40.90
439;DHT22;206;48.782;9.252;2022-11-22T10:42:39;11.10;41.20
439;DHT22;206;48.782;9.252;2022-11-22T10:45:23;11.10;41.00
439;DHT22;206;48.782;9.252;2022-11-22T10:56:22;11.40;40.10
439;DHT22;206;48.782;9.252;2022-11-22T11:04:14;11.30;38.40
439;DHT22;206;48.782;9.252;2022-11-22T11:06:55;11.40;37.60
439;DHT22;206;48.782;9.252;2022-11-22T11:11:54;11.50;36.30
439;DHT22;206;48.782;9.252;2022-11-22T11:16:52;11.60;36.90
439;DHT22;206;48.782;9.252;2022-11-22T11:19:20;11.60;36.30
439;DHT22;206;48.782;9.252;2022-11-22T11:24:31;11.60;34.20
439;DHT22;206;48.782;9.252;2022-11-22T11:26:59;11.50;32.40
439;DHT22;206;48.782;9.252;2022-11-22T11:29:49;11.50;33.30
439;DHT22;206;48.782;9.252;2022-11-22T11:32:18;11.60;33.20
439;DHT22;206;48.782;9.252;2022-11-22T11:35:00;11.60;32.10
439;DHT22;206;48.782;9.252;2022-11-22T11:37:34;11.60;32.80
439;DHT22;206;48.782;9.252;2022-11-22T11:40:04;11.70;31.90
439;DHT22;206;48.782;9.252;2022-11-22T11:42:33;11.70;31.30
439;DHT22;206;48.782;9.252;2022-11-22T11:47:45;11.70;30.30
439;DHT22;206;48.782;9.252;2022-11-22T11:50:22;11.70;32.30
439;DHT22;206;48.782;9.252;2022-11-22T11:53:01;11.80;31.50
439;DHT22;206;48.782;9.252;2022-11-22T11:55:30;11.80;30.80
439;DHT22;206;48.782;9.252;2022-11-22T11:57:57;11.80;29.90
439;DHT22;206;48.782;9.252;2022-11-22T12:00:28;11.70;29.30
439;DHT22;206;48.782;9.252;2022-11-22T12:03:03;11.80;30.00
439;DHT22;206;48.782;9.252;2022-11-22T12:05:31;11.80;29.90
439;DHT22;206;48.782;9.252;2022-11-22T12:07:58;11.80;29.30
439;DHT22;206;48.782;9.252;2022-11-22T12:10:53;11.90;28.90
439;DHT22;206;48.782;9.252;2022-11-22T12:16:26;11.90;29.00
439;DHT22;206;48.782;9.252;2022-11-22T12:19:26;11.80;28.90
439;DHT22;206;48.782;9.252;2022-11-22T12:21:55;11.70;28.90
439;DHT22;206;48.782;9.252;2022-11-22T12:26:58;11.70;28.90
439;DHT22;206;48.782;9.252;2022-11-22T12:29:23;11.70;28.80
439;DHT22;206;48.782;9.252;2022-11-22T12:32:11;11.60;29.10
439;DHT22;206;48.782;9.252;2022-11-22T12:34:56;11.60;29.10
439;DHT22;206;48.782;9.252;2022-11-22T12:38:25;11.70;29.60
439;DHT22;206;48.782;9.252;2022-11-22T12:40:49;11.70;28.90
439;DHT22;206;48.782;9.252;2022-11-22T12:43:23;11.60;29.20
439;DHT22;206;48.782;9.252;2022-11-22T12:46:39;11.60;28.80
439;DHT22;206;48.782;9.252;2022-11-22T12:48:40;11.60;28.80
439;DHT22;206;48.782;9.252;2022-11-22T12:51:40;11.60;28.60
439;DHT22;206;48.782;9.252;2022-11-22T12:54:04;11.50;29.00
439;DHT22;206;48.782;9.252;2022-11-22T13:01:51;11.40;28.90
439;DHT22;206;48.782;9.252;2022-11-22T13:04:57;11.40;29.20
439;DHT22;206;48.782;9.252;2022-11-22T13:07:46;11.40;29.10
439;DHT22;206;48.782;9.252;2022-11-22T13:10:55;11.40;29.80
439;DHT22;206;48.782;9.252;2022-11-22T13:13:30;11.40;29.40
439;DHT22;206;48.782;9.252;2022-11-22T13:15:59;11.40;29.10
439;DHT22;206;48.782;9.252;2022-11-22T13:18:30;11.40;28.50
439;DHT22;206;48.782;9.252;2022-11-22T13:21:07;11.30;29.40
439;DHT22;206;48.782;9.252;2022-11-22T13:29:35;11.30;28.30
439;DHT22;206;48.782;9.252;2022-11-22T13:32:03;11.30;28.50
439;DHT22;206;48.782;9.252;2022-11-22T13:34:30;11.30;28.90
439;DHT22;206;48.782;9.252;2022-11-22T13:39:40;11.30;28.30
439;DHT22;206;48.782;9.252;2022-11-22T13:42:11;11.20;29.00
439;DHT22;206;48.782;9.252;2022-11-22T13:44:51;11.20;28.80
439;DHT22;206;48.782;9.252;2022-11-22T13:47:40;11.20;28.50
439;DHT22;206;48.782;9.252;2022-11-22T13:55:43;11.00;28.90
439;DHT22;206;48.782;9.252;2022-11-22T14:00:54;10.90;28.90
439;DHT22;206;48.782;9.252;2022-11-22T14:03:38;10.90;28.80
439;DHT22;206;48.782;9.252;2022-11-22T14:06:28;10.90;29.20
439;DHT22;206;48.782;9.252;2022-11-22T14:09:15;10.90;29.00
439;DHT22;206;48.782;9.252;2022-11-22T14:11:56;10.90;29.00
439;DHT22;206;48.782;9.252;2022-11-22T14:31:32;10.80;28.60
439;DHT22;206;48.782;9.252;2022-11-22T14:36:42;10.70;28.60
439;DHT22;206;48.782;9.252;2022-11-22T14:47:33;10.50;28.70
439;DHT22;206;48.782;9.252;2022-11-22T14:50:00;10.50;29.50
439;DHT22;206;48.782;9.252;2022-11-22T14:52:31;10.50;29.00
439;DHT22;206;48.782;9.252;2022-11-22T14:54:58;10.50;28.70
439;DHT22;206;48.782;9.252;2022-11-22T14:57:26;10.50;28.90
439;DHT22;206;48.782;9.252;2022-11-22T15:00:19;10.50;28.90
439;DHT22;206;48.782;9.252;2022-11-22T15:08:19;10.50;29.20
439;DHT22;206;48.782;9.252;2022-11-22T15:11:16;10.40;29.40
439;DHT22;206;48.782;9.252;2022-11-22T15:16:32;10.40;30.30
439;DHT22;206;48.782;9.252;2022-11-22T15:18:58;10.30;30.30
439;DHT22;206;48.782;9.252;2022-11-22T15:21:35;10.30;30.20
439;DHT22;206;48.782;9.252;2022-11-22T15:24:27;10.30;30.30
439;DHT22;206;48.782;9.252;2022-11-22T15:26:55;10.20;30.70
439;DHT22;206;48.782;9.252;2022-11-22T15:29:22;10.10;30.70
439;DHT22;206;48.782;9.252;2022-11-22T15:31:48;10.10;31.20
439;DHT22;206;48.782;9.252;2022-11-22T15:34:18;10.10;31.30
439;DHT22;206;48.782;9.252;2022-11-22T15:39:54;10.00;31.70
439;DHT22;206;48.782;9.252;2022-11-22T15:42:20;10.00;32.10
439;DHT22;206;48.782;9.252;2022-11-22T15:44:46;10.00;32.20
439;DHT22;206;48.782;9.252;2022-11-22T15:47:17;10.00;32.60
439;DHT22;206;48.782;9.252;2022-11-22T15:49:43;10.00;32.40
439;DHT22;206;48.782;9.252;2022-11-22T15:52:24;10.00;32.00
439;DHT22;206;48.782;9.252;2022-11-22T15:54:56;10.00;31.50
439;DHT22;206;48.782;9.252;2022-11-22T15:57:32;10.00;31.80
439;DHT22;206;48.782;9.252;2022-11-22T15:59:59;10.00;32.20
439;DHT22;206;48.782;9.252;2022-11-22T16:02:26;10.00;31.90
439;DHT22;206;48.782;9.252;2022-11-22T16:07:35;10.00;32.40
439;DHT22;206;48.782;9.252;2022-11-22T16:10:03;10.10;33.10
439;DHT22;206;48.782;9.252;2022-11-22T16:12:37;10.10;33.00
439;DHT22;206;48.782;9.252;2022-11-22T16:15:27;10.10;32.10
439;DHT22;206;48.782;9.252;2022-11-22T16:20:32;10.10;31.80
439;DHT22;206;48.782;9.252;2022-11-22T16:23:12;10.10;32.00
439;DHT22;206;48.782;9.252;2022-11-22T16:25:43;10.10;32.50
439;DHT22;206;48.782;9.252;2022-11-22T16:28:30;10.10;32.00
439;DHT22;206;48.782;9.252;2022-11-22T16:31:15;10.00;32.40
439;DHT22;206;48.782;9.252;2022-11-22T16:33:42;10.00;32.20
439;DHT22;206;48.782;9.252;2022-11-22T16:36:11;10.10;32.90
439;DHT22;206;48.782;9.252;2022-11-22T16:38:38;10.00;33.10
439;DHT22;206;48.782;9.252;2022-11-22T16:41:05;10.00;32.60
439;DHT22;206;48.782;9.252;2022-11-22T16:43:34;10.00;32.60
439;DHT22;206;48.782;9.252;2022-11-22T16:46:00;10.00;33.80
439;DHT22;206;48.782;9.252;2022-11-22T16:48:27;10.10;34.00
439;DHT22;206;48.782;9.252;2022-11-22T16:51:02;10.10;33.30
439;DHT22;206;48.782;9.252;2022-11-22T16:53:38;10.10;33.60
439;DHT22;206;48.782;9.252;2022-11-22T16:56:05;10.10;34.00
439;DHT22;206;48.782;9.252;2022-11-22T16:58:30;10.10;33.30
439;DHT22;206;48.782;9.252;2022-11-22T17:00:56;10.10;33.00
439;DHT22;206;48.782;9.252;2022-11-22T17:03:24;10.10;33.90
439;DHT22;206;48.782;9.252;2022-11-22T17:05:50;10.10;33.20
439;DHT22;206;48.782;9.252;2022-11-22T17:08:18;10.10;36.40
439;DHT22;206;48.782;9.252;2022-11-22T17:10:46;10.10;34.60
439;DHT22;206;48.782;9.252;2022-11-22T17:13:23;10.10;33.90
439;DHT22;206;48.782;9.252;2022-11-22T17:15:53;10.10;33.90
439;DHT22;206;48.782;9.252;2022-11-22T17:18:19;10.10;34.00
439;DHT22;206;48.782;9.252;2022-11-22T17:20:46;10.10;34.20
439;DHT22;206;48.782;9.252;2022-11-22T17:23:33;10.10;33.90
439;DHT22;206;48.782;9.252;2022-11-22T17:26:01;10.10;34.00
439;DHT22;206;48.782;9.252;2022-11-22T17:28:27;10.10;33.90
439;DHT22;206;48.782;9.252;2022-11-22T17:30:56;10.10;34.00
439;DHT22;206;48.782;9.252;2022-11-22T17:33:22;10.10;34.00
439;DHT22;206;48.782;9.252;2022-11-22T17:35:49;10.10;34.00
439;DHT22;206;48.782;9.252;2022-11-22T17:38:20;10.10;34.20
439;DHT22;206;48.782;9.252;2022-11-22T17:40:46;10.10;34.80
439;DHT22;206;48.782;9.252;2022-11-22T17:43:14;10.20;34.00
439;DHT22;206;48.782;9.252;2022-11-22T17:45:41;10.20;34.00
439;DHT22;206;48.782;9.252;2022-11-22T17:48:08;10.20;34.00
439;DHT22;206;48.782;9.252;2022-11-22T17:50:34;10.20;34.00
439;DHT22;206;48.782;9.252;2022-11-22T17:53:00;10.20;34.60
439;DHT22;206;48.782;9.252;2022-11-22T17:55:25;10.20;34.60
439;DHT22;206;48.782;9.252;2022-11-22T17:57:51;10.20;34.60
439;DHT22;206;48.782;9.252;2022-11-22T18:00:17;10.20;34.50
439;DHT22;206;48.782;9.252;2022-11-22T18:02:43;10.20;34.50
439;DHT22;206;48.782;9.252;2022-11-22T18:05:09;10.20;34.80
439;DHT22;206;48.782;9.252;2022-11-22T18:07:35;10.10;34.90
439;DHT22;206;48.782;9.252;2022-11-22T18:10:07;10.00;35.50
439;DHT22;206;48.782;9.252;2022-11-22T18:12:36;10.00;36.00
439;DHT22;206;48.782;9.252;2022-11-22T18:15:04;10.00;36.40
439;DHT22;206;48.782;9.252;2022-11-22T18:17:31;10.00;36.30
439;DHT22;206;48.782;9.252;2022-11-22T18:19:58;10.00;36.40
439;DHT22;206;48.782;9.252;2022-11-22T18:22:23;9.90;37.60
439;DHT22;206;48.782;9.252;2022-11-22T18:24:49;9.90;38.00
439;DHT22;206;48.782;9.252;2022-11-22T18:27:14;9.90;38.20
439;DHT22;206;48.782;9.252;2022-11-22T18:29:40;9.80;38.20
439;DHT22;206;48.782;9.252;2022-11-22T18:32:06;9.80;38.50
439;DHT22;206;48.782;9.252;2022-11-22T18:34:31;9.90;39.00
439;DHT22;206;48.782;9.252;2022-11-22T18:36:58;9.90;39.30
439;DHT22;206;48.782;9.252;2022-11-22T18:39:23;9.90;39.30
439;DHT22;206;48.782;9.252;2022-11-22T18:41:49;9.90;39.40
439;DHT22;206;48.782;9.252;2022-11-22T18:44:15;9.90;39.30
439;DHT22;206;48.782;9.252;2022-11-22T18:46:41;9.90;39.70
439;DHT22;206;48.782;9.252;2022-11-22T18:49:07;9.90;39.70
439;DHT22;206;48.782;9.252;2022-11-22T18:51:33;9.80;39.60
439;DHT22;206;48.782;9.252;2022-11-22T18:53:58;9.80;39.70
439;DHT22;206;48.782;9.252;2022-11-22T18:56:25;9.80;39.90
439;DHT22;206;48.782;9.252;2022-11-22T18:58:51;9.80;40.60
439;DHT22;206;48.782;9.252;2022-11-22T19:01:18;9.80;40.40
439;DHT22;206;48.782;9.252;2022-11-22T19:03:46;9.80;40.80
439;DHT22;206;48.782;9.252;2022-11-22T19:06:14;9.80;40.90